createdAt,value
2019-05-29T00:01:50.371Z,96.50
2019-05-29T00:04:22.432Z,96.40
2019-05-29T00:06:54.827Z,96.50
2019-05-29T00:09:28.314Z,96.40
2019-05-29T00:12:00.709Z,96.50
2019-05-29T00:14:33.837Z,96.20
2019-05-29T00:17:08.371Z,96.40
2019-05-29T00:19:40.491Z,96.40
2019-05-29T00:22:12.624Z,96.30
2019-05-29T00:24:44.666Z,96.30
2019-05-29T00:27:17.844Z,96.30
2019-05-29T00:29:50.143Z,96.30
2019-05-29T00:32:22.197Z,96.20
2019-05-29T00:34:54.267Z,96.00
2019-05-29T00:37:30.366Z,96.00
2019-05-29T00:40:02.278Z,95.80
2019-05-29T00:42:34.406Z,95.80
2019-05-29T00:45:09.771Z,95.70
2019-05-29T00:47:41.835Z,95.60
2019-05-29T00:50:16.047Z,95.50
2019-05-29T00:52:48.691Z,95.50
2019-05-29T00:55:20.733Z,95.40
2019-05-29T00:57:53.049Z,95.50
2019-05-29T01:00:25.485Z,95.30
2019-05-29T01:02:57.541Z,95.30
2019-05-29T01:05:31.484Z,95.20
2019-05-29T01:08:03.718Z,95.00
2019-05-29T01:10:35.851Z,94.90
2019-05-29T01:13:11.575Z,94.70
2019-05-29T01:15:44.982Z,94.70
2019-05-29T01:18:17.826Z,94.50
2019-05-29T01:20:49.738Z,94.50
2019-05-29T01:23:22.445Z,94.40
2019-05-29T01:25:54.829Z,94.30
2019-05-29T01:28:26.887Z,94.00
2019-05-29T01:30:59.017Z,94.00
2019-05-29T01:33:31.464Z,93.80
2019-05-29T01:36:03.471Z,93.40
2019-05-29T01:38:35.324Z,93.20
2019-05-29T01:41:07.746Z,93.50
2019-05-29T01:43:39.556Z,93.30
2019-05-29T01:46:11.434Z,93.00
2019-05-29T01:48:43.723Z,92.60
2019-05-29T01:51:15.866Z,92.50
2019-05-29T01:53:48.459Z,92.40
2019-05-29T01:56:21.934Z,92.60
2019-05-29T01:58:54.080Z,92.00
2019-05-29T02:01:26.386Z,91.70
2019-05-29T02:03:58.621Z,91.80
2019-05-29T02:06:30.774Z,91.70
2019-05-29T02:09:02.906Z,91.50
2019-05-29T02:11:34.710Z,90.90
2019-05-29T02:14:06.803Z,90.70
2019-05-29T02:16:38.974Z,90.20
2019-05-29T02:19:12.200Z,90.40
2019-05-29T02:21:44.642Z,90.60
2019-05-29T02:24:17.112Z,90.10
2019-05-29T02:26:49.350Z,90.10
2019-05-29T02:29:24.877Z,89.60
2019-05-29T02:31:57.035Z,88.40
2019-05-29T02:34:30.140Z,88.30
2019-05-29T02:37:02.454Z,89.40
2019-05-29T02:39:54.147Z,89.50
2019-05-29T02:42:29.156Z,89.70
2019-05-29T02:45:01.954Z,89.50
2019-05-29T02:47:34.287Z,89.10
2019-05-29T02:50:11.421Z,88.90
2019-05-29T02:52:43.771Z,88.20
2019-05-29T02:55:15.713Z,87.60
2019-05-29T02:57:48.252Z,87.60
2019-05-29T03:00:23.385Z,87.40
2019-05-29T03:02:56.657Z,87.30
2019-05-29T03:05:50.114Z,86.30
2019-05-29T03:08:24.397Z,85.20
2019-05-29T03:10:56.713Z,85.90
2019-05-29T03:13:30.488Z,84.90
2019-05-29T03:16:11.497Z,85.40
2019-05-29T03:18:58.657Z,84.80
2019-05-29T03:21:32.403Z,84.00
2019-05-29T03:24:24.487Z,83.80
2019-05-29T03:26:57.016Z,84.40
2019-05-29T03:29:30.037Z,84.40
2019-05-29T03:32:02.493Z,83.90
2019-05-29T03:34:42.325Z,83.30
2019-05-29T03:37:28.186Z,82.80
2019-05-29T03:40:00.788Z,83.20
2019-05-29T03:42:34.453Z,83.10
2019-05-29T03:45:07.586Z,82.20
2019-05-29T03:47:39.970Z,82.00
2019-05-29T03:50:15.711Z,83.00
2019-05-29T03:53:05.357Z,80.00
2019-05-29T03:55:37.978Z,80.30
2019-05-29T03:58:10.187Z,80.20
2019-05-29T04:00:46.387Z,79.10
2019-05-29T04:03:16.273Z,79.90
2019-05-29T04:05:48.688Z,80.60
2019-05-29T04:08:20.814Z,81.30
2019-05-29T04:11:13.652Z,80.00
2019-05-29T04:13:52.073Z,78.70
2019-05-29T04:16:27.634Z,79.30
2019-05-29T04:19:20.834Z,78.30
2019-05-29T04:21:56.608Z,78.50
2019-05-29T04:24:31.934Z,78.90
2019-05-29T04:27:06.863Z,76.70
2019-05-29T04:29:41.503Z,76.70
2019-05-29T04:32:13.725Z,76.80
2019-05-29T04:34:46.283Z,78.80
2019-05-29T04:37:18.279Z,77.90
2019-05-29T04:39:50.569Z,75.30
2019-05-29T04:42:22.531Z,76.10
2019-05-29T04:44:54.900Z,74.10
2019-05-29T04:47:28.808Z,74.70
2019-05-29T04:50:01.367Z,75.00
2019-05-29T04:52:35.930Z,74.80
2019-05-29T04:55:09.384Z,70.50
2019-05-29T04:57:41.926Z,72.30
2019-05-29T05:00:14.665Z,71.60
2019-05-29T05:03:05.681Z,72.10
2019-05-29T05:05:40.109Z,72.00
2019-05-29T05:08:11.769Z,70.70
2019-05-29T05:10:45.338Z,69.00
2019-05-29T05:13:18.034Z,69.90
2019-05-29T05:15:50.948Z,68.60
2019-05-29T05:18:26.242Z,68.60
2019-05-29T05:20:58.397Z,68.60
2019-05-29T05:23:52.819Z,68.20
2019-05-29T05:26:24.662Z,66.90
2019-05-29T05:28:56.950Z,67.80
2019-05-29T05:31:32.299Z,67.80
2019-05-29T05:34:15.413Z,68.20
2019-05-29T05:36:47.949Z,67.20
2019-05-29T05:39:19.738Z,66.50
2019-05-29T05:41:52.203Z,67.80
2019-05-29T05:44:24.556Z,66.70
2019-05-29T05:46:56.671Z,66.30
2019-05-29T05:49:41.842Z,64.30
2019-05-29T05:52:14.202Z,65.70
2019-05-29T05:54:46.312Z,64.90
2019-05-29T05:57:19.093Z,64.80
2019-05-29T05:59:51.289Z,65.40
2019-05-29T06:02:26.895Z,65.40
2019-05-29T06:04:59.142Z,64.20
2019-05-29T06:07:31.955Z,63.80
2019-05-29T06:10:05.485Z,64.50
2019-05-29T06:12:38.685Z,64.10
2019-05-29T06:15:11.167Z,63.20
2019-05-29T06:18:00.531Z,62.00
2019-05-29T06:20:17.744Z,63.10
2019-05-29T06:22:50.117Z,63.70
2019-05-29T06:25:23.570Z,64.60
2019-05-29T06:27:56.047Z,63.70
2019-05-29T06:30:28.872Z,63.50
2019-05-29T06:33:01.200Z,64.30
2019-05-29T06:35:34.212Z,64.80
2019-05-29T06:38:08.394Z,66.10
2019-05-29T06:40:44.143Z,65.90
2019-05-29T06:43:19.830Z,65.40
2019-05-29T06:45:52.258Z,66.00
2019-05-29T06:48:43.058Z,65.90
2019-05-29T06:51:01.748Z,67.10
2019-05-29T06:53:53.644Z,67.70
2019-05-29T06:56:25.901Z,67.80
2019-05-29T06:58:58.145Z,68.20
2019-05-29T07:01:31.026Z,68.90
2019-05-29T07:04:12.074Z,69.00
2019-05-29T07:06:37.025Z,69.70
2019-05-29T07:09:09.745Z,69.70
2019-05-29T07:11:43.249Z,70.80
2019-05-29T07:14:15.859Z,70.40
2019-05-29T07:16:55.762Z,70.60
2019-05-29T07:19:28.144Z,69.90
2019-05-29T07:21:56.348Z,70.70
2019-05-29T07:24:28.599Z,70.70
2019-05-29T07:27:00.697Z,70.30
2019-05-29T07:29:32.851Z,68.90
2019-05-29T07:32:05.094Z,68.50
2019-05-29T07:34:51.330Z,69.00
2019-05-29T07:37:10.788Z,69.40
2019-05-29T07:39:43.598Z,68.80
2019-05-29T07:42:15.705Z,67.40
2019-05-29T07:44:48.449Z,67.10
2019-05-29T07:47:20.835Z,67.00
2019-05-29T07:49:53.392Z,65.60
2019-05-29T07:52:45.394Z,62.50
2019-05-29T07:55:23.798Z,61.50
2019-05-29T07:57:56.091Z,61.90
2019-05-29T08:00:35.543Z,62.30
2019-05-29T08:03:06.450Z,62.50
2019-05-29T08:05:39.189Z,62.50
2019-05-29T08:08:12.898Z,61.00
2019-05-29T08:10:45.525Z,61.70
2019-05-29T08:13:39.474Z,61.80
2019-05-29T08:16:11.521Z,60.90
2019-05-29T08:18:47.255Z,60.80
2019-05-29T08:21:17.205Z,61.20
2019-05-29T08:23:50.793Z,60.60
2019-05-29T08:26:24.260Z,60.50
2019-05-29T08:28:56.610Z,60.40
2019-05-29T08:31:28.878Z,60.90
2019-05-29T08:34:01.026Z,61.30
2019-05-29T08:36:33.270Z,61.40
2019-05-29T08:39:08.590Z,62.20
2019-05-29T08:41:45.462Z,62.00
2019-05-29T08:44:29.667Z,62.20
2019-05-29T08:47:10.529Z,63.20
2019-05-29T08:49:39.454Z,62.70
2019-05-29T08:52:12.590Z,63.00
2019-05-29T08:54:45.943Z,63.60
2019-05-29T08:57:18.354Z,64.50
2019-05-29T08:59:50.922Z,65.40
2019-05-29T09:02:22.882Z,65.80
2019-05-29T09:04:58.946Z,66.00
2019-05-29T09:07:32.077Z,66.20
2019-05-29T09:10:05.258Z,66.40
2019-05-29T09:12:37.238Z,67.40
2019-05-29T09:15:12.198Z,67.40
2019-05-29T09:17:44.656Z,68.30
2019-05-29T09:20:31.961Z,67.50
2019-05-29T09:22:50.919Z,67.80
2019-05-29T09:25:23.619Z,68.40
2019-05-29T09:27:55.682Z,67.80
2019-05-29T09:30:27.842Z,67.90
2019-05-29T09:33:01.449Z,67.90
2019-05-29T09:35:33.929Z,67.60
2019-05-29T09:38:06.569Z,67.70
2019-05-29T09:40:39.619Z,67.70
2019-05-29T09:43:12.308Z,67.40
2019-05-29T09:45:44.534Z,66.80
2019-05-29T09:48:48.845Z,66.90
2019-05-29T09:51:20.639Z,66.80
2019-05-29T09:53:43.694Z,67.20
2019-05-29T09:56:16.224Z,66.40
2019-05-29T09:58:56.383Z,66.60
2019-05-29T10:01:28.658Z,66.00
2019-05-29T10:04:03.422Z,66.90
2019-05-29T10:06:34.807Z,66.00
2019-05-29T10:09:09.588Z,66.50
2019-05-29T10:11:42.203Z,66.40
2019-05-29T10:14:14.253Z,66.40
2019-05-29T10:16:46.241Z,66.10
2019-05-29T10:19:18.591Z,65.50
2019-05-29T10:21:51.226Z,66.30
2019-05-29T10:24:23.294Z,65.50
2019-05-29T10:26:55.561Z,65.80
2019-05-29T10:29:32.203Z,66.00
2019-05-29T10:32:07.743Z,66.30
2019-05-29T10:34:40.477Z,66.30
2019-05-29T10:37:13.409Z,67.30
2019-05-29T10:40:09.881Z,67.30
2019-05-29T10:42:43.109Z,67.40
2019-05-29T10:45:16.837Z,67.50
2019-05-29T10:47:49.797Z,67.70
2019-05-29T10:50:23.026Z,68.00
2019-05-29T10:52:55.409Z,68.00
2019-05-29T10:55:48.578Z,68.00
2019-05-29T10:58:21.362Z,68.50
2019-05-29T11:00:53.555Z,69.10
2019-05-29T11:03:25.548Z,70.20
2019-05-29T11:06:24.385Z,69.70
2019-05-29T11:08:56.542Z,69.90
2019-05-29T11:11:28.828Z,69.50
2019-05-29T11:14:01.105Z,69.90
2019-05-29T11:16:33.407Z,70.10
2019-05-29T11:19:06.037Z,70.70
2019-05-29T11:21:38.235Z,70.80
2019-05-29T11:24:10.627Z,71.10
2019-05-29T11:26:42.924Z,71.30
2019-05-29T11:29:14.970Z,71.80
2019-05-29T11:31:48.472Z,71.80
2019-05-29T11:34:24.683Z,71.70
2019-05-29T11:36:58.342Z,71.60
2019-05-29T11:39:30.632Z,71.80
2019-05-29T11:42:03.679Z,72.10
2019-05-29T11:44:35.986Z,71.20
2019-05-29T11:47:27.107Z,71.20
2019-05-29T11:50:14.543Z,71.40
2019-05-29T11:52:42.996Z,72.40
2019-05-29T11:55:10.404Z,72.40
2019-05-29T11:57:42.842Z,72.90
2019-05-29T12:00:20.700Z,73.20
2019-05-29T12:02:53.603Z,72.80
2019-05-29T12:05:26.355Z,72.40
2019-05-29T12:07:59.564Z,72.70
2019-05-29T12:10:31.743Z,72.20
2019-05-29T12:13:04.270Z,72.00
2019-05-29T12:15:36.455Z,71.90
2019-05-29T12:18:22.982Z,71.40
2019-05-29T12:20:42.739Z,72.50
2019-05-29T12:23:25.846Z,76.80
2019-05-29T12:25:48.749Z,77.40
2019-05-29T12:28:40.823Z,77.90
2019-05-29T12:31:12.979Z,78.40
2019-05-29T12:33:45.156Z,79.80
2019-05-29T12:36:17.306Z,80.30
2019-05-29T12:38:50.059Z,81.80
2019-05-29T12:41:22.392Z,82.50
2019-05-29T12:43:55.304Z,85.00
2019-05-29T12:46:27.865Z,87.00
2019-05-29T12:49:01.582Z,87.70
2019-05-29T12:51:42.938Z,86.30
2019-05-29T12:54:15.042Z,86.60
2019-05-29T12:57:06.366Z,87.00
2019-05-29T12:59:39.779Z,86.50
2019-05-29T13:02:12.466Z,86.40
2019-05-29T13:05:06.940Z,87.10
2019-05-29T13:07:18.831Z,87.30
2019-05-29T13:09:50.934Z,87.80
2019-05-29T13:12:23.307Z,89.30
2019-05-29T13:14:56.475Z,90.00
2019-05-29T13:17:28.623Z,90.70
2019-05-29T13:20:08.053Z,91.30
2019-05-29T13:22:37.098Z,91.50
2019-05-29T13:25:12.207Z,91.60
2019-05-29T13:27:45.009Z,92.00
2019-05-29T13:30:19.568Z,91.80
2019-05-29T13:32:52.024Z,91.70
2019-05-29T13:35:24.441Z,91.90
2019-05-29T13:37:56.913Z,92.00
2019-05-29T13:40:29.845Z,91.80
2019-05-29T13:43:11.198Z,91.80
2019-05-29T13:45:36.207Z,92.20
2019-05-29T13:48:08.283Z,92.30
2019-05-29T13:50:40.669Z,92.10
2019-05-29T13:53:13.009Z,92.20
2019-05-29T13:55:45.336Z,92.40
2019-05-29T13:58:18.487Z,91.80
2019-05-29T14:00:50.710Z,91.70
2019-05-29T14:03:22.703Z,91.70
2019-05-29T14:05:55.090Z,91.90
2019-05-29T14:08:27.343Z,92.40
2019-05-29T14:11:00.881Z,92.50
2019-05-29T14:13:32.938Z,92.50
2019-05-29T14:16:06.665Z,92.60
2019-05-29T14:18:39.023Z,92.60
2019-05-29T14:21:11.590Z,92.70
2019-05-29T14:23:44.142Z,92.70
2019-05-29T14:26:16.495Z,92.80
2019-05-29T14:28:48.726Z,92.90
2019-05-29T14:31:23.923Z,92.90
2019-05-29T14:33:56.208Z,92.70
2019-05-29T14:36:28.637Z,92.60
2019-05-29T14:39:01.577Z,92.50
2019-05-29T14:41:34.101Z,92.60
2019-05-29T14:44:07.804Z,92.60
2019-05-29T14:46:40.158Z,92.80
2019-05-29T14:49:13.534Z,92.80
2019-05-29T14:51:45.852Z,92.80
2019-05-29T14:54:17.988Z,92.80
2019-05-29T14:56:49.950Z,92.70
2019-05-29T14:59:22.061Z,92.60
2019-05-29T15:01:54.837Z,92.70
2019-05-29T15:04:27.157Z,92.80
2019-05-29T15:06:59.201Z,92.80
2019-05-29T15:09:31.231Z,92.80
2019-05-29T15:12:04.020Z,92.90
2019-05-29T15:14:36.278Z,92.90
2019-05-29T15:17:09.079Z,92.90
2019-05-29T15:19:41.396Z,92.90
2019-05-29T15:22:14.520Z,93.00
2019-05-29T15:25:01.522Z,93.10
2019-05-29T15:27:21.446Z,93.10
2019-05-29T15:29:53.383Z,93.20
2019-05-29T15:32:25.534Z,93.40
2019-05-29T15:34:57.592Z,93.30
2019-05-29T15:37:29.780Z,93.30
2019-05-29T15:40:01.802Z,93.30
2019-05-29T15:42:34.249Z,93.30
2019-05-29T15:45:08.112Z,93.50
2019-05-29T15:47:40.312Z,93.40
2019-05-29T15:50:16.112Z,93.30
2019-05-29T15:52:48.588Z,93.20
2019-05-29T15:55:31.850Z,93.80
2019-05-29T15:57:56.130Z,93.40
2019-05-29T16:00:29.282Z,93.50
2019-05-29T16:03:02.479Z,93.60
2019-05-29T16:05:34.469Z,93.60
2019-05-29T16:08:07.853Z,93.70
2019-05-29T16:10:40.494Z,93.70
2019-05-29T16:13:12.916Z,93.90
2019-05-29T16:15:45.553Z,94.00
2019-05-29T16:18:26.854Z,94.10
2019-05-29T16:20:51.846Z,94.10
2019-05-29T16:23:35.342Z,94.10
2019-05-29T16:25:57.947Z,94.10
2019-05-29T16:28:30.058Z,94.20
2019-05-29T16:31:02.020Z,94.30
2019-05-29T16:33:34.825Z,94.20
2019-05-29T16:36:07.096Z,94.20
2019-05-29T16:38:39.384Z,94.10
2019-05-29T16:41:11.862Z,94.00
2019-05-29T16:43:43.893Z,94.10
2019-05-29T16:46:19.287Z,94.10
2019-05-29T16:48:50.183Z,94.10
2019-05-29T16:51:23.043Z,94.20
2019-05-29T16:53:55.468Z,94.30
2019-05-29T16:56:27.393Z,94.20
2019-05-29T16:58:59.515Z,94.20
2019-05-29T17:01:31.709Z,94.20
2019-05-29T17:04:03.858Z,94.60
2019-05-29T17:06:37.241Z,94.30
2019-05-29T17:09:11.835Z,94.60
2019-05-29T17:11:44.220Z,94.30
2019-05-29T17:14:16.465Z,94.40
2019-05-29T17:16:48.962Z,94.40
2019-05-29T17:19:23.008Z,94.40
2019-05-29T17:21:55.310Z,94.40
2019-05-29T17:24:27.419Z,94.40
2019-05-29T17:26:59.588Z,94.40
2019-05-29T17:29:31.704Z,94.30
2019-05-29T17:32:04.166Z,94.40
2019-05-29T17:34:36.232Z,94.40
2019-05-29T17:37:08.409Z,94.30
2019-05-29T17:39:40.975Z,94.30
2019-05-29T17:42:12.842Z,94.40
2019-05-29T17:44:44.995Z,94.40
2019-05-29T17:47:17.731Z,94.20
2019-05-29T17:49:49.854Z,94.40
2019-05-29T17:52:21.918Z,94.40
2019-05-29T17:54:54.100Z,94.40
2019-05-29T17:57:26.246Z,94.40
2019-05-29T17:59:58.286Z,94.30
2019-05-29T18:02:30.330Z,94.20
2019-05-29T18:05:02.227Z,94.20
2019-05-29T18:07:34.466Z,94.10
2019-05-29T18:10:09.418Z,94.10
2019-05-29T18:12:41.867Z,94.10
2019-05-29T18:15:15.169Z,94.10
2019-05-29T18:17:47.503Z,94.10
2019-05-29T18:20:21.583Z,94.10
2019-05-29T18:22:59.028Z,94.10
2019-05-29T18:25:33.467Z,94.20
2019-05-29T18:28:06.431Z,94.20
2019-05-29T18:30:38.571Z,94.30
2019-05-29T18:33:10.712Z,94.40
2019-05-29T18:35:43.109Z,94.40
2019-05-29T18:38:15.181Z,94.30
2019-05-29T18:40:47.407Z,94.30
2019-05-29T18:43:20.363Z,94.30
2019-05-29T18:45:52.465Z,94.40
2019-05-29T18:48:25.297Z,94.40
2019-05-29T18:50:57.481Z,94.40
2019-05-29T18:53:29.591Z,94.40
2019-05-29T18:56:01.769Z,94.40
2019-05-29T18:58:34.724Z,94.80
2019-05-29T19:01:07.274Z,94.50
2019-05-29T19:03:41.365Z,94.60
2019-05-29T19:06:13.393Z,94.60
2019-05-29T19:08:45.757Z,94.60
2019-05-29T19:11:18.192Z,94.60
2019-05-29T19:13:50.367Z,94.70
2019-05-29T19:16:23.879Z,94.50
2019-05-29T19:18:56.218Z,94.50
2019-05-29T19:21:28.490Z,94.40
2019-05-29T19:24:00.592Z,94.40
2019-05-29T19:26:36.591Z,94.40
2019-05-29T19:29:07.191Z,94.40
2019-05-29T19:31:42.527Z,94.40
2019-05-29T19:34:13.392Z,94.40
2019-05-29T19:36:45.575Z,94.30
2019-05-29T19:39:17.511Z,94.30
2019-05-29T19:41:49.780Z,94.30
2019-05-29T19:44:21.846Z,94.30
2019-05-29T19:46:54.372Z,94.30
2019-05-29T19:49:27.285Z,94.30
2019-05-29T19:52:00.833Z,94.40
2019-05-29T19:54:33.642Z,94.40
2019-05-29T19:57:05.955Z,94.40
2019-05-29T19:59:37.872Z,94.30
2019-05-29T20:02:10.134Z,94.30
2019-05-29T20:04:42.391Z,94.40
2019-05-29T20:07:14.474Z,94.30
2019-05-29T20:09:46.694Z,94.20
2019-05-29T20:12:19.063Z,94.20
2019-05-29T20:14:51.155Z,94.20
2019-05-29T20:17:23.200Z,94.20
2019-05-29T20:19:55.524Z,94.20
2019-05-29T20:22:28.551Z,94.30
2019-05-29T20:25:00.871Z,94.30
2019-05-29T20:27:34.172Z,94.40
2019-05-29T20:30:09.278Z,94.40
2019-05-29T20:32:42.988Z,94.50
2019-05-29T20:35:15.671Z,94.50
2019-05-29T20:37:48.764Z,94.60
2019-05-29T20:40:21.151Z,94.50
2019-05-29T20:42:53.373Z,94.50
2019-05-29T20:45:25.808Z,94.50
2019-05-29T20:47:57.941Z,94.50
2019-05-29T20:50:30.906Z,94.30
2019-05-29T20:53:03.450Z,94.60
2019-05-29T20:55:36.312Z,94.60
2019-05-29T20:58:23.459Z,94.60
2019-05-29T21:00:42.455Z,94.60
2019-05-29T21:03:14.448Z,94.70
2019-05-29T21:05:46.563Z,94.80
2019-05-29T21:08:19.112Z,94.80
2019-05-29T21:10:51.175Z,94.90
2019-05-29T21:13:23.740Z,94.90
2019-05-29T21:15:55.720Z,94.90
2019-05-29T21:18:27.602Z,94.90
2019-05-29T21:20:59.787Z,94.90
2019-05-29T21:23:31.584Z,94.90
2019-05-29T21:26:03.673Z,94.70
2019-05-29T21:28:40.739Z,94.70
2019-05-29T21:31:09.758Z,94.70
2019-05-29T21:33:45.244Z,94.70
2019-05-29T21:36:15.712Z,95.00
2019-05-29T21:38:48.162Z,94.80
2019-05-29T21:41:20.207Z,94.80
2019-05-29T21:43:52.304Z,94.90
2019-05-29T21:46:24.548Z,94.90
2019-05-29T21:48:56.540Z,94.90
2019-05-29T21:51:28.599Z,94.90
2019-05-29T21:54:00.816Z,94.90
2019-05-29T21:56:32.728Z,94.90
2019-05-29T21:59:06.410Z,95.00
2019-05-29T22:01:39.908Z,95.00
2019-05-29T22:04:30.896Z,95.00
2019-05-29T22:07:02.899Z,95.00
2019-05-29T22:09:35.042Z,95.00
2019-05-29T22:12:07.742Z,95.00
2019-05-29T22:14:39.854Z,95.10
2019-05-29T22:17:12.477Z,95.10
2019-05-29T22:19:44.741Z,95.10
2019-05-29T22:22:16.873Z,95.20
2019-05-29T22:24:48.915Z,95.20
2019-05-29T22:27:21.140Z,95.20
2019-05-29T22:29:53.562Z,95.20
2019-05-29T22:32:26.076Z,95.20
2019-05-29T22:34:59.495Z,95.20
2019-05-29T22:37:32.153Z,95.20
2019-05-29T22:40:04.252Z,95.30
2019-05-29T22:42:36.221Z,95.30
2019-05-29T22:45:10.338Z,95.30
2019-05-29T22:50:30.154Z,95.40
2019-05-29T22:53:02.611Z,95.30
2019-05-29T22:55:36.363Z,95.50
2019-05-29T22:58:08.793Z,95.60
2019-05-29T23:00:41.385Z,95.60
2019-05-29T23:03:13.655Z,95.60
2019-05-29T23:05:45.787Z,95.70
2019-05-29T23:08:17.870Z,95.70
2019-05-29T23:10:50.219Z,95.80
2019-05-29T23:13:22.192Z,95.90
2019-05-29T23:15:54.567Z,96.00
2019-05-29T23:18:26.994Z,96.00
2019-05-29T23:21:00.518Z,96.10
2019-05-29T23:23:32.808Z,96.20
2019-05-29T23:26:04.877Z,96.30
2019-05-29T23:28:37.330Z,96.40
2019-05-29T23:31:09.438Z,96.30
2019-05-29T23:33:42.020Z,96.30
2019-05-29T23:36:14.402Z,96.40
2019-05-29T23:38:46.419Z,96.50
2019-05-29T23:41:18.360Z,96.50
2019-05-29T23:43:50.328Z,96.50
2019-05-29T23:46:22.691Z,96.50
2019-05-29T23:48:55.384Z,96.50
2019-05-29T23:51:27.947Z,96.60
2019-05-29T23:54:00.141Z,96.60
2019-05-29T23:56:32.192Z,96.60
2019-05-29T23:59:04.842Z,96.60
